sensor_id;sensor_type;location;lat;lon;timestamp;pressure;altitude;pressure_sealevel;temperature;humidity
15998;BME280;8103;51.340;12.326;2023-04-29T00:00:42;99693.28;;;13.00;99.35
15998;BME280;8103;51.340;12.326;2023-04-29T00:03:09;99688.16;;;12.98;99.89
15998;BME280;8103;51.340;12.326;2023-04-29T00:05:37;99689.53;;;12.96;100.00
15998;BME280;8103;51.340;12.326;2023-04-29T00:08:04;99688.75;;;12.90;100.00
15998;BME280;8103;51.340;12.326;2023-04-29T00:10:31;99676.94;;;12.86;100.00
15998;BME280;8103;51.340;12.326;2023-04-29T00:12:59;99678.59;;;12.82;100.00
15998;BME280;8103;51.340;12.326;2023-04-29T00:15:27;99678.84;;;12.80;100.00
15998;BME280;8103;51.340;12.326;2023-04-29T00:17:58;99676.44;;;12.79;100.00
15998;BME280;8103;51.340;12.326;2023-04-29T00:20:25;99668.91;;;12.81;100.00
15998;BME280;8103;51.340;12.326;2023-04-29T00:22:53;99668.34;;;12.84;100.00
15998;BME280;8103;51.340;12.326;2023-04-29T00:25:19;99665.38;;;12.85;100.00
15998;BME280;8103;51.340;12.326;2023-04-29T00:27:46;99660.22;;;12.89;100.00
15998;BME280;8103;51.340;12.326;2023-04-29T00:30:15;99662.09;;;12.93;100.00
15998;BME280;8103;51.340;12.326;2023-04-29T00:32:42;99656.41;;;12.95;100.00
15998;BME280;8103;51.340;12.326;2023-04-29T00:35:10;99662.91;;;12.94;100.00
15998;BME280;8103;51.340;12.326;2023-04-29T00:37:37;99662.38;;;12.92;100.00
15998;BME280;8103;51.340;12.326;2023-04-29T00:40:05;99664.00;;;12.93;100.00
15998;BME280;8103;51.340;12.326;2023-04-29T00:42:34;99663.47;;;12.91;100.00
15998;BME280;8103;51.340;12.326;2023-04-29T00:45:02;99656.47;;;12.90;100.00
15998;BME280;8103;51.340;12.326;2023-04-29T00:47:29;99659.94;;;12.96;100.00
15998;BME280;8103;51.340;12.326;2023-04-29T00:49:56;99657.78;;;12.98;100.00
15998;BME280;8103;51.340;12.326;2023-04-29T00:52:23;99672.56;;;13.00;100.00
15998;BME280;8103;51.340;12.326;2023-04-29T00:54:51;99670.41;;;13.02;100.00
15998;BME280;8103;51.340;12.326;2023-04-29T00:57:21;99672.78;;;13.04;100.00
15998;BME280;8103;51.340;12.326;2023-04-29T00:59:49;99672.00;;;13.03;100.00
15998;BME280;8103;51.340;12.326;2023-04-29T01:02:17;99679.00;;;13.04;100.00
15998;BME280;8103;51.340;12.326;2023-04-29T01:04:44;99677.41;;;13.03;100.00
15998;BME280;8103;51.340;12.326;2023-04-29T01:07:26;99684.38;;;13.04;100.00
15998;BME280;8103;51.340;12.326;2023-04-29T01:10:21;99680.03;;;13.08;100.00
15998;BME280;8103;51.340;12.326;2023-04-29T01:13:08;99673.81;;;13.13;100.00
15998;BME280;8103;51.340;12.326;2023-04-29T01:15:46;99670.56;;;13.16;100.00
15998;BME280;8103;51.340;12.326;2023-04-29T01:18:19;99682.69;;;13.13;100.00
15998;BME280;8103;51.340;12.326;2023-04-29T01:20:51;99681.59;;;13.14;100.00
15998;BME280;8103;51.340;12.326;2023-04-29T01:23:18;99686.72;;;13.16;100.00
15998;BME280;8103;51.340;12.326;2023-04-29T01:25:46;99685.38;;;13.18;100.00
15998;BME280;8103;51.340;12.326;2023-04-29T01:31:17;99684.28;;;13.14;100.00
15998;BME280;8103;51.340;12.326;2023-04-29T01:37:08;99681.09;;;13.12;100.00
15998;BME280;8103;51.340;12.326;2023-04-29T01:39:58;99685.09;;;13.15;100.00
15998;BME280;8103;51.340;12.326;2023-04-29T01:43:00;99689.13;;;13.17;100.00
15998;BME280;8103;51.340;12.326;2023-04-29T01:45:30;99684.28;;;13.14;100.00
15998;BME280;8103;51.340;12.326;2023-04-29T01:47:59;99690.50;;;13.15;100.00
15998;BME280;8103;51.340;12.326;2023-04-29T01:50:27;99696.69;;;13.15;100.00
15998;BME280;8103;51.340;12.326;2023-04-29T01:52:53;99693.72;;;13.17;100.00
15998;BME280;8103;51.340;12.326;2023-04-29T01:55:20;99698.28;;;13.16;100.00
15998;BME280;8103;51.340;12.326;2023-04-29T01:57:48;99701.50;;;13.18;100.00
15998;BME280;8103;51.340;12.326;2023-04-29T02:00:14;99705.81;;;13.19;100.00
15998;BME280;8103;51.340;12.326;2023-04-29T02:02:41;99706.34;;;13.21;100.00
15998;BME280;8103;51.340;12.326;2023-04-29T02:05:08;99698.75;;;13.23;100.00
15998;BME280;8103;51.340;12.326;2023-04-29T02:07:36;99705.44;;;13.31;100.00
15998;BME280;8103;51.340;12.326;2023-04-29T02:10:04;99709.44;;;13.33;100.00
15998;BME280;8103;51.340;12.326;2023-04-29T02:12:31;99700.31;;;13.34;100.00
15998;BME280;8103;51.340;12.326;2023-04-29T02:14:58;99712.66;;;13.40;100.00
15998;BME280;8103;51.340;12.326;2023-04-29T02:17:27;99712.06;;;13.43;100.00
15998;BME280;8103;51.340;12.326;2023-04-29T02:19:56;99714.25;;;13.41;100.00
15998;BME280;8103;51.340;12.326;2023-04-29T02:22:23;99711.00;;;13.44;100.00
15998;BME280;8103;51.340;12.326;2023-04-29T02:24:50;99705.59;;;13.44;100.00
15998;BME280;8103;51.340;12.326;2023-04-29T02:27:17;99705.88;;;13.43;100.00
15998;BME280;8103;51.340;12.326;2023-04-29T02:29:44;99709.41;;;13.38;100.00
15998;BME280;8103;51.340;12.326;2023-04-29T02:32:11;99709.41;;;13.38;100.00
15998;BME280;8103;51.340;12.326;2023-04-29T02:34:40;99709.41;;;13.38;100.00
15998;BME280;8103;51.340;12.326;2023-04-29T02:37:07;99707.28;;;13.35;100.00
15998;BME280;8103;51.340;12.326;2023-04-29T02:39:34;99706.75;;;13.33;100.00
15998;BME280;8103;51.340;12.326;2023-04-29T02:42:02;99706.75;;;13.33;100.00
15998;BME280;8103;51.340;12.326;2023-04-29T02:44:28;99712.69;;;13.35;100.00
15998;BME280;8103;51.340;12.326;2023-04-29T02:46:57;99711.34;;;13.33;100.00
15998;BME280;8103;51.340;12.326;2023-04-29T02:49:23;99718.63;;;13.32;100.00
15998;BME280;8103;51.340;12.326;2023-04-29T02:51:50;99720.22;;;13.33;100.00
15998;BME280;8103;51.340;12.326;2023-04-29T02:54:18;99709.44;;;13.33;100.00
15998;BME280;8103;51.340;12.326;2023-04-29T02:56:45;99713.50;;;13.36;100.00
15998;BME280;8103;51.340;12.326;2023-04-29T02:59:11;99715.38;;;13.35;100.00
15998;BME280;8103;51.340;12.326;2023-04-29T03:01:39;99711.34;;;13.33;100.00
15998;BME280;8103;51.340;12.326;2023-04-29T03:04:06;99714.84;;;13.33;100.00
15998;BME280;8103;51.340;12.326;2023-04-29T03:06:33;99714.34;;;13.31;100.00
15998;BME280;8103;51.340;12.326;2023-04-29T03:09:00;99710.00;;;13.30;100.00
15998;BME280;8103;51.340;12.326;2023-04-29T03:11:27;99715.41;;;13.30;100.00
15998;BME280;8103;51.340;12.326;2023-04-29T03:13:54;99711.94;;;13.25;100.00
15998;BME280;8103;51.340;12.326;2023-04-29T03:16:22;99715.47;;;13.25;100.00
15998;BME280;8103;51.340;12.326;2023-04-29T03:18:48;99714.91;;;13.23;100.00
15998;BME280;8103;51.340;12.326;2023-04-29T03:21:15;99711.94;;;13.25;100.00
15998;BME280;8103;51.340;12.326;2023-04-29T03:23:43;99714.91;;;13.28;100.00
15998;BME280;8103;51.340;12.326;2023-04-29T03:26:10;99710.56;;;13.27;100.00
15998;BME280;8103;51.340;12.326;2023-04-29T03:28:37;99712.97;;;13.29;100.00
15998;BME280;8103;51.340;12.326;2023-04-29T03:31:04;99710.50;;;13.37;100.00
15998;BME280;8103;51.340;12.326;2023-04-29T03:33:31;99706.72;;;13.38;100.00
15998;BME280;8103;51.340;12.326;2023-04-29T03:35:57;99708.88;;;13.36;100.00
15998;BME280;8103;51.340;12.326;2023-04-29T03:38:24;99709.44;;;13.33;100.00
15998;BME280;8103;51.340;12.326;2023-04-29T03:40:51;99704.31;;;13.37;100.00
15998;BME280;8103;51.340;12.326;2023-04-29T03:43:18;99706.16;;;13.41;100.00
15998;BME280;8103;51.340;12.326;2023-04-29T03:45:45;99706.66;;;13.43;100.00
15998;BME280;8103;51.340;12.326;2023-04-29T03:48:12;99698.59;;;13.43;100.00
15998;BME280;8103;51.340;12.326;2023-04-29T03:50:39;99704.56;;;13.40;100.00
15998;BME280;8103;51.340;12.326;2023-04-29T03:53:07;99706.97;;;13.42;100.00
15998;BME280;8103;51.340;12.326;2023-04-29T03:55:34;99709.34;;;13.43;100.00
15998;BME280;8103;51.340;12.326;2023-04-29T03:58:02;99711.00;;;13.44;100.00
15998;BME280;8103;51.340;12.326;2023-04-29T04:04:35;99720.06;;;13.53;100.00
15998;BME280;8103;51.340;12.326;2023-04-29T04:07:02;99727.59;;;13.56;100.00
15998;BME280;8103;51.340;12.326;2023-04-29T04:09:29;99722.13;;;13.61;100.00
15998;BME280;8103;51.340;12.326;2023-04-29T04:11:56;99728.56;;;13.65;100.00
15998;BME280;8103;51.340;12.326;2023-04-29T04:14:23;99730.13;;;13.71;100.00
15998;BME280;8103;51.340;12.326;2023-04-29T04:16:50;99725.31;;;13.68;100.00
15998;BME280;8103;51.340;12.326;2023-04-29T04:19:17;99729.84;;;13.73;100.00
15998;BME280;8103;51.340;12.326;2023-04-29T04:21:44;99733.38;;;13.68;100.00
15998;BME280;8103;51.340;12.326;2023-04-29T04:24:11;99733.38;;;13.68;100.00
15998;BME280;8103;51.340;12.326;2023-04-29T04:26:38;99738.22;;;13.71;100.00
15998;BME280;8103;51.340;12.326;2023-04-29T04:33:11;99745.44;;;13.76;100.00
15998;BME280;8103;51.340;12.326;2023-04-29T04:35:38;99736.84;;;13.74;100.00
15998;BME280;8103;51.340;12.326;2023-04-29T04:38:05;99741.34;;;13.83;100.00
15998;BME280;8103;51.340;12.326;2023-04-29T04:40:32;99740.50;;;13.83;100.00
15998;BME280;8103;51.340;12.326;2023-04-29T04:42:59;99734.81;;;13.89;100.00
15998;BME280;8103;51.340;12.326;2023-04-29T04:45:28;99732.69;;;13.86;100.00
15998;BME280;8103;51.340;12.326;2023-04-29T04:47:55;99731.28;;;13.89;100.00
15998;BME280;8103;51.340;12.326;2023-04-29T04:50:22;99734.81;;;13.89;99.66
15998;BME280;8103;51.340;12.326;2023-04-29T04:52:49;99735.84;;;13.93;99.73
15998;BME280;8103;51.340;12.326;2023-04-29T04:55:16;99745.03;;;13.92;99.21
15998;BME280;8103;51.340;12.326;2023-04-29T05:01:50;99755.22;;;13.95;99.23
15998;BME280;8103;51.340;12.326;2023-04-29T05:04:17;99763.59;;;13.94;98.64
15998;BME280;8103;51.340;12.326;2023-04-29T05:06:44;99769.00;;;13.94;98.67
15998;BME280;8103;51.340;12.326;2023-04-29T05:09:12;99760.16;;;13.88;99.14
15998;BME280;8103;51.340;12.326;2023-04-29T05:11:39;99756.63;;;13.93;99.18
15998;BME280;8103;51.340;12.326;2023-04-29T05:14:07;99756.38;;;13.89;99.30
15998;BME280;8103;51.340;12.326;2023-04-29T05:16:34;99766.34;;;13.89;99.12
15998;BME280;8103;51.340;12.326;2023-04-29T05:23:07;99767.50;;;14.06;98.54
15998;BME280;8103;51.340;12.326;2023-04-29T05:25:37;99763.63;;;14.17;97.98
15998;BME280;8103;51.340;12.326;2023-04-29T05:28:04;99768.38;;;14.30;98.02
15998;BME280;8103;51.340;12.326;2023-04-29T05:30:32;99768.63;;;14.34;97.36
15998;BME280;8103;51.340;12.326;2023-04-29T05:33:00;99774.47;;;14.41;96.86
15998;BME280;8103;51.340;12.326;2023-04-29T05:35:27;99773.53;;;14.50;96.56
15998;BME280;8103;51.340;12.326;2023-04-29T05:37:54;99781.56;;;14.55;96.33
15998;BME280;8103;51.340;12.326;2023-04-29T05:40:20;99776.50;;;14.72;96.25
15998;BME280;8103;51.340;12.326;2023-04-29T05:42:48;99782.41;;;14.74;95.74
15998;BME280;8103;51.340;12.326;2023-04-29T05:45:15;99782.84;;;14.81;95.48
15998;BME280;8103;51.340;12.326;2023-04-29T05:47:44;99796.34;;;14.81;95.52
15998;BME280;8103;51.340;12.326;2023-04-29T05:54:18;99802.88;;;14.99;94.92
15998;BME280;8103;51.340;12.326;2023-04-29T05:56:45;99799.09;;;15.19;94.61
15998;BME280;8103;51.340;12.326;2023-04-29T05:59:12;99806.53;;;15.27;94.08
15998;BME280;8103;51.340;12.326;2023-04-29T06:05:41;99814.88;;;15.67;92.83
15998;BME280;8103;51.340;12.326;2023-04-29T06:12:15;99827.75;;;15.89;91.40
15998;BME280;8103;51.340;12.326;2023-04-29T06:18:48;99829.47;;;15.85;90.00
15998;BME280;8103;51.340;12.326;2023-04-29T06:21:17;99834.09;;;15.66;89.77
15998;BME280;8103;51.340;12.326;2023-04-29T06:23:44;99844.03;;;15.52;90.11
15998;BME280;8103;51.340;12.326;2023-04-29T06:26:14;99844.75;;;15.39;90.36
15998;BME280;8103;51.340;12.326;2023-04-29T06:32:47;99851.78;;;15.40;90.52
15998;BME280;8103;51.340;12.326;2023-04-29T06:35:14;99852.06;;;15.57;90.78
15998;BME280;8103;51.340;12.326;2023-04-29T06:37:41;99859.50;;;15.65;90.33
15998;BME280;8103;51.340;12.326;2023-04-29T06:40:08;99859.72;;;15.68;90.31
15998;BME280;8103;51.340;12.326;2023-04-29T06:46:42;99861.88;;;15.53;90.23
15998;BME280;8103;51.340;12.326;2023-04-29T06:53:40;99867.13;;;15.63;89.00
15998;BME280;8103;51.340;12.326;2023-04-29T07:00:14;99872.44;;;15.49;88.29
15998;BME280;8103;51.340;12.326;2023-04-29T07:06:48;99876.00;;;15.63;86.55
15998;BME280;8103;51.340;12.326;2023-04-29T07:13:21;99886.91;;;15.58;84.55
15998;BME280;8103;51.340;12.326;2023-04-29T07:15:48;99885.03;;;15.59;85.06
15998;BME280;8103;51.340;12.326;2023-04-29T07:22:21;99894.59;;;15.51;84.10
15998;BME280;8103;51.340;12.326;2023-04-29T07:24:52;99898.78;;;15.39;83.18
15998;BME280;8103;51.340;12.326;2023-04-29T07:27:19;99906.44;;;15.32;83.08
15998;BME280;8103;51.340;12.326;2023-04-29T07:29:46;99905.41;;;15.28;82.83
15998;BME280;8103;51.340;12.326;2023-04-29T07:32:13;99905.41;;;15.28;82.83
15998;BME280;8103;51.340;12.326;2023-04-29T07:34:43;99910.81;;;15.28;83.01
15998;BME280;8103;51.340;12.326;2023-04-29T07:37:10;99917.06;;;15.23;82.83
15998;BME280;8103;51.340;12.326;2023-04-29T07:39:37;99920.19;;;15.12;82.86
15998;BME280;8103;51.340;12.326;2023-04-29T07:42:04;99921.78;;;15.13;82.97
15998;BME280;8103;51.340;12.326;2023-04-29T07:44:31;99924.53;;;15.08;83.37
15998;BME280;8103;51.340;12.326;2023-04-29T07:46:58;99938.53;;;15.15;83.35
15998;BME280;8103;51.340;12.326;2023-04-29T07:49:24;99934.19;;;15.14;83.67
15998;BME280;8103;51.340;12.326;2023-04-29T07:51:51;99940.66;;;15.18;83.51
15998;BME280;8103;51.340;12.326;2023-04-29T07:58:24;99937.06;;;15.22;82.20
15998;BME280;8103;51.340;12.326;2023-04-29T08:00:53;99947.00;;;15.27;82.18
15998;BME280;8103;51.340;12.326;2023-04-29T08:03:20;99941.78;;;15.35;81.90
15998;BME280;8103;51.340;12.326;2023-04-29T08:05:47;99953.28;;;15.46;80.60
15998;BME280;8103;51.340;12.326;2023-04-29T08:08:16;99956.88;;;15.60;79.91
15998;BME280;8103;51.340;12.326;2023-04-29T08:10:43;99962.09;;;15.75;79.64
15998;BME280;8103;51.340;12.326;2023-04-29T08:13:10;99963.84;;;15.66;77.74
15998;BME280;8103;51.340;12.326;2023-04-29T08:15:37;99964.63;;;15.66;78.50
15998;BME280;8103;51.340;12.326;2023-04-29T08:22:05;99984.41;;;15.62;78.73
15998;BME280;8103;51.340;12.326;2023-04-29T08:28:39;100006.66;;;15.96;77.37
15998;BME280;8103;51.340;12.326;2023-04-29T08:35:12;100000.25;;;16.29;75.07
15998;BME280;8103;51.340;12.326;2023-04-29T08:37:39;100009.59;;;16.55;74.44
15998;BME280;8103;51.340;12.326;2023-04-29T08:40:08;100008.75;;;16.73;72.92
15998;BME280;8103;51.340;12.326;2023-04-29T08:42:36;100010.72;;;17.13;71.41
15998;BME280;8103;51.340;12.326;2023-04-29T08:45:04;100015.19;;;17.50;69.59
15998;BME280;8103;51.340;12.326;2023-04-29T08:47:32;100007.03;;;17.90;67.67
15998;BME280;8103;51.340;12.326;2023-04-29T08:50:04;100011.75;;;17.85;65.57
15998;BME280;8103;51.340;12.326;2023-04-29T08:52:32;100010.75;;;17.81;66.51
15998;BME280;8103;51.340;12.326;2023-04-29T08:59:08;100030.69;;;17.49;67.05
15998;BME280;8103;51.340;12.326;2023-04-29T09:05:44;100037.47;;;16.87;67.81
15998;BME280;8103;51.340;12.326;2023-04-29T09:08:14;100042.28;;;16.58;68.90
15998;BME280;8103;51.340;12.326;2023-04-29T09:10:42;100045.88;;;16.17;71.64
15998;BME280;8103;51.340;12.326;2023-04-29T09:13:26;100048.47;;;15.85;72.49
15998;BME280;8103;51.340;12.326;2023-04-29T09:15:53;100052.38;;;15.74;73.21
15998;BME280;8103;51.340;12.326;2023-04-29T09:18:46;100059.63;;;15.55;73.85
15998;BME280;8103;51.340;12.326;2023-04-29T09:21:18;100060.91;;;15.39;74.47
15998;BME280;8103;51.340;12.326;2023-04-29T09:23:54;100062.53;;;15.40;74.31
15998;BME280;8103;51.340;12.326;2023-04-29T09:30:31;100065.28;;;15.58;73.84
15998;BME280;8103;51.340;12.326;2023-04-29T09:36:58;100086.91;;;15.30;74.29
15998;BME280;8103;51.340;12.326;2023-04-29T09:43:32;100093.81;;;15.69;73.86
15998;BME280;8103;51.340;12.326;2023-04-29T09:46:00;100095.28;;;16.04;72.77
15998;BME280;8103;51.340;12.326;2023-04-29T09:48:30;100102.66;;;16.59;69.28
15998;BME280;8103;51.340;12.326;2023-04-29T09:51:01;100104.31;;;16.92;68.11
15998;BME280;8103;51.340;12.326;2023-04-29T09:53:34;100111.22;;;17.17;67.14
15998;BME280;8103;51.340;12.326;2023-04-29T09:56:04;100117.00;;;17.10;66.94
15998;BME280;8103;51.340;12.326;2023-04-29T09:58:34;100130.69;;;16.68;66.84
15998;BME280;8103;51.340;12.326;2023-04-29T10:01:10;100122.97;;;16.38;67.13
15998;BME280;8103;51.340;12.326;2023-04-29T10:03:40;100135.56;;;16.05;68.76
15998;BME280;8103;51.340;12.326;2023-04-29T10:06:08;100135.41;;;15.73;69.94
15998;BME280;8103;51.340;12.326;2023-04-29T10:08:38;100135.88;;;15.52;70.59
15998;BME280;8103;51.340;12.326;2023-04-29T10:11:09;100138.75;;;15.32;71.79
15998;BME280;8103;51.340;12.326;2023-04-29T10:13:41;100141.69;;;15.07;73.06
15998;BME280;8103;51.340;12.326;2023-04-29T10:16:30;100147.16;;;14.97;73.91
15998;BME280;8103;51.340;12.326;2023-04-29T10:19:05;100145.66;;;14.80;74.54
15998;BME280;8103;51.340;12.326;2023-04-29T10:21:33;100155.44;;;14.71;74.80
15998;BME280;8103;51.340;12.326;2023-04-29T10:24:02;100152.38;;;14.88;74.49
15998;BME280;8103;51.340;12.326;2023-04-29T10:26:30;100156.13;;;15.21;73.26
15998;BME280;8103;51.340;12.326;2023-04-29T10:28:59;100158.72;;;15.41;72.14
15998;BME280;8103;51.340;12.326;2023-04-29T10:31:27;100161.91;;;15.43;71.56
15998;BME280;8103;51.340;12.326;2023-04-29T10:38:33;100175.75;;;15.65;70.80
15998;BME280;8103;51.340;12.326;2023-04-29T10:45:20;100174.53;;;14.80;73.58
15998;BME280;8103;51.340;12.326;2023-04-29T10:53:05;100184.00;;;14.34;76.12
15998;BME280;8103;51.340;12.326;2023-04-29T11:02:08;100195.50;;;14.44;76.17
15998;BME280;8103;51.340;12.326;2023-04-29T11:08:42;100193.78;;;14.73;74.87
15998;BME280;8103;51.340;12.326;2023-04-29T11:11:12;100199.16;;;14.73;74.76
15998;BME280;8103;51.340;12.326;2023-04-29T11:13:45;100198.34;;;14.73;75.03
15998;BME280;8103;51.340;12.326;2023-04-29T11:20:19;100211.69;;;14.44;75.74
15998;BME280;8103;51.340;12.326;2023-04-29T11:22:50;100205.31;;;14.30;76.06
15998;BME280;8103;51.340;12.326;2023-04-29T11:25:17;100212.63;;;14.25;76.38
15998;BME280;8103;51.340;12.326;2023-04-29T11:31:44;100224.19;;;14.20;75.85
15998;BME280;8103;51.340;12.326;2023-04-29T11:34:11;100225.56;;;14.13;75.14
15998;BME280;8103;51.340;12.326;2023-04-29T11:36:38;100225.81;;;14.26;74.92
15998;BME280;8103;51.340;12.326;2023-04-29T11:39:05;100233.84;;;14.41;74.42
15998;BME280;8103;51.340;12.326;2023-04-29T11:41:33;100235.72;;;14.46;73.91
15998;BME280;8103;51.340;12.326;2023-04-29T11:48:07;100244.13;;;14.39;73.38
15998;BME280;8103;51.340;12.326;2023-04-29T11:50:35;100251.16;;;14.35;73.58
15998;BME280;8103;51.340;12.326;2023-04-29T11:53:05;100257.59;;;14.39;73.73
15998;BME280;8103;51.340;12.326;2023-04-29T11:55:33;100256.56;;;14.35;74.11
15998;BME280;8103;51.340;12.326;2023-04-29T11:58:00;100264.13;;;14.23;75.32
15998;BME280;8103;51.340;12.326;2023-04-29T12:00:27;100264.66;;;14.25;75.92
15998;BME280;8103;51.340;12.326;2023-04-29T12:02:57;100264.91;;;14.34;75.90
15998;BME280;8103;51.340;12.326;2023-04-29T12:05:27;100275.34;;;14.60;75.60
15998;BME280;8103;51.340;12.326;2023-04-29T12:07:54;100273.06;;;14.82;74.42
15998;BME280;8103;51.340;12.326;2023-04-29T12:10:21;100269.09;;;15.14;73.20
15998;BME280;8103;51.340;12.326;2023-04-29T12:12:48;100271.41;;;15.35;71.96
15998;BME280;8103;51.340;12.326;2023-04-29T12:15:15;100259.47;;;15.41;69.86
15998;BME280;8103;51.340;12.326;2023-04-29T12:17:43;100265.38;;;15.48;69.31
15998;BME280;8103;51.340;12.326;2023-04-29T12:20:12;100265.34;;;16.10;68.65
15998;BME280;8103;51.340;12.326;2023-04-29T12:22:40;100263.94;;;16.65;66.32
15998;BME280;8103;51.340;12.326;2023-04-29T12:25:09;100272.31;;;17.61;63.63
15998;BME280;8103;51.340;12.326;2023-04-29T12:27:39;100258.91;;;17.51;61.21
15998;BME280;8103;51.340;12.326;2023-04-29T12:30:10;100266.34;;;17.27;62.59
15998;BME280;8103;51.340;12.326;2023-04-29T12:32:37;100277.69;;;17.11;62.73
15998;BME280;8103;51.340;12.326;2023-04-29T12:35:05;100278.88;;;16.81;62.95
15998;BME280;8103;51.340;12.326;2023-04-29T12:37:34;100276.84;;;16.73;63.44
15998;BME280;8103;51.340;12.326;2023-04-29T12:40:04;100276.81;;;16.97;63.62
15998;BME280;8103;51.340;12.326;2023-04-29T12:42:32;100280.09;;;17.12;63.15
15998;BME280;8103;51.340;12.326;2023-04-29T12:44:59;100282.53;;;17.51;62.31
15998;BME280;8103;51.340;12.326;2023-04-29T12:47:32;100286.81;;;17.70;60.87
15998;BME280;8103;51.340;12.326;2023-04-29T12:50:05;100277.44;;;18.08;59.83
15998;BME280;8103;51.340;12.326;2023-04-29T12:52:32;100279.31;;;18.80;58.45
15998;BME280;8103;51.340;12.326;2023-04-29T12:55:02;100290.53;;;19.15;56.63
15998;BME280;8103;51.340;12.326;2023-04-29T12:57:30;100297.34;;;19.26;55.67
15998;BME280;8103;51.340;12.326;2023-04-29T12:59:59;100291.53;;;19.05;54.90
15998;BME280;8103;51.340;12.326;2023-04-29T13:02:27;100295.75;;;18.62;55.64
15998;BME280;8103;51.340;12.326;2023-04-29T13:04:55;100294.81;;;18.39;57.01
15998;BME280;8103;51.340;12.326;2023-04-29T13:07:22;100282.41;;;18.06;57.26
15998;BME280;8103;51.340;12.326;2023-04-29T13:09:49;100284.38;;;17.69;58.35
15998;BME280;8103;51.340;12.326;2023-04-29T13:12:17;100286.78;;;17.57;58.91
15998;BME280;8103;51.340;12.326;2023-04-29T13:14:43;100291.97;;;17.53;59.05
15998;BME280;8103;51.340;12.326;2023-04-29T13:17:10;100288.00;;;17.27;60.00
15998;BME280;8103;51.340;12.326;2023-04-29T13:19:40;100307.53;;;17.06;60.37
15998;BME280;8103;51.340;12.326;2023-04-29T13:22:17;100300.16;;;17.30;60.11
15998;BME280;8103;51.340;12.326;2023-04-29T13:24:44;100290.47;;;17.42;59.81
15998;BME280;8103;51.340;12.326;2023-04-29T13:27:11;100291.97;;;17.85;58.83
15998;BME280;8103;51.340;12.326;2023-04-29T13:29:41;100295.53;;;17.99;57.56
15998;BME280;8103;51.340;12.326;2023-04-29T13:32:08;100293.69;;;17.81;57.87
15998;BME280;8103;51.340;12.326;2023-04-29T13:34:35;100290.16;;;18.26;56.92
15998;BME280;8103;51.340;12.326;2023-04-29T13:37:02;100305.97;;;18.38;55.96
15998;BME280;8103;51.340;12.326;2023-04-29T13:39:29;100308.63;;;18.11;56.56
15998;BME280;8103;51.340;12.326;2023-04-29T13:41:57;100304.47;;;17.68;58.21
15998;BME280;8103;51.340;12.326;2023-04-29T13:44:25;100295.19;;;17.18;60.05
15998;BME280;8103;51.340;12.326;2023-04-29T13:47:01;100305.78;;;16.96;60.96
15998;BME280;8103;51.340;12.326;2023-04-29T13:49:31;100301.25;;;16.68;61.79
15998;BME280;8103;51.340;12.326;2023-04-29T13:52:00;100303.69;;;16.46;62.69
15998;BME280;8103;51.340;12.326;2023-04-29T13:54:32;100308.13;;;16.08;64.66
15998;BME280;8103;51.340;12.326;2023-04-29T13:57:19;100300.91;;;15.99;65.42
15998;BME280;8103;51.340;12.326;2023-04-29T13:59:49;100304.06;;;16.06;65.82
15998;BME280;8103;51.340;12.326;2023-04-29T14:02:19;100309.97;;;16.13;65.66
15998;BME280;8103;51.340;12.326;2023-04-29T14:04:51;100305.59;;;16.17;64.72
15998;BME280;8103;51.340;12.326;2023-04-29T14:07:19;100312.47;;;16.33;64.32
15998;BME280;8103;51.340;12.326;2023-04-29T14:09:45;100306.56;;;16.54;64.17
15998;BME280;8103;51.340;12.326;2023-04-29T14:12:12;100315.06;;;16.90;63.10
15998;BME280;8103;51.340;12.326;2023-04-29T14:14:39;100311.94;;;17.20;62.01
15998;BME280;8103;51.340;12.326;2023-04-29T14:17:07;100313.16;;;17.51;61.53
15998;BME280;8103;51.340;12.326;2023-04-29T14:19:33;100309.09;;;17.67;60.47
15998;BME280;8103;51.340;12.326;2023-04-29T14:22:01;100324.59;;;17.80;59.43
15998;BME280;8103;51.340;12.326;2023-04-29T14:24:27;100321.94;;;17.62;59.38
15998;BME280;8103;51.340;12.326;2023-04-29T14:26:54;100326.41;;;17.71;59.24
15998;BME280;8103;51.340;12.326;2023-04-29T14:29:21;100331.53;;;17.54;59.44
15998;BME280;8103;51.340;12.326;2023-04-29T14:31:49;100320.53;;;17.64;59.80
15998;BME280;8103;51.340;12.326;2023-04-29T14:34:16;100330.06;;;18.12;58.54
15998;BME280;8103;51.340;12.326;2023-04-29T14:40:44;100328.22;;;18.40;56.88
15998;BME280;8103;51.340;12.326;2023-04-29T14:43:11;100333.84;;;18.43;57.15
15998;BME280;8103;51.340;12.326;2023-04-29T14:45:38;100335.91;;;18.19;56.70
15998;BME280;8103;51.340;12.326;2023-04-29T14:48:06;100340.16;;;18.07;57.69
15998;BME280;8103;51.340;12.326;2023-04-29T14:50:33;100340.75;;;17.90;57.92
15998;BME280;8103;51.340;12.326;2023-04-29T14:53:01;100337.56;;;17.70;58.38
15998;BME280;8103;51.340;12.326;2023-04-29T14:55:28;100349.44;;;17.55;58.95
15998;BME280;8103;51.340;12.326;2023-04-29T14:57:56;100346.47;;;17.33;59.70
15998;BME280;8103;51.340;12.326;2023-04-29T15:00:24;100352.00;;;17.23;59.81
15998;BME280;8103;51.340;12.326;2023-04-29T15:02:50;100359.22;;;17.14;60.03
15998;BME280;8103;51.340;12.326;2023-04-29T15:05:21;100354.47;;;17.01;59.97
15998;BME280;8103;51.340;12.326;2023-04-29T15:07:48;100366.50;;;16.95;60.08
15998;BME280;8103;51.340;12.326;2023-04-29T15:14:23;100360.94;;;17.05;59.38
15998;BME280;8103;51.340;12.326;2023-04-29T15:16:50;100358.63;;;17.17;59.25
15998;BME280;8103;51.340;12.326;2023-04-29T15:19:17;100355.00;;;17.22;59.07
15998;BME280;8103;51.340;12.326;2023-04-29T15:21:45;100359.56;;;17.26;59.05
15998;BME280;8103;51.340;12.326;2023-04-29T15:24:11;100353.50;;;17.34;59.49
15998;BME280;8103;51.340;12.326;2023-04-29T15:26:38;100355.25;;;17.25;59.19
15998;BME280;8103;51.340;12.326;2023-04-29T15:29:05;100366.22;;;17.15;59.48